Time;durP1;ratioP1;P1;durP2;ratioP2;P2;SDS_P1;SDS_P2;PMS_P1;PMS_P2;Temp;Humidity;BMP_temperature;BMP_pressure;BME280_temperature;BME280_humidity;BME280_pressure;Samples;Min_cycle;Max_cycle;Signal;HPM_P1;HPM_P2
2022/08/24 00:01:07;;;;;;;82.70;70.35;;;19.90;99.90;;;;;;5103459;28;20039;-71
2022/08/24 00:03:34;;;;;;;78.78;65.65;;;19.90;99.90;;;;;;5086769;28;20044;-70
2022/08/24 00:06:00;;;;;;;75.25;62.97;;;19.90;99.90;;;;;;5107366;27;20043;-70
2022/08/24 00:08:27;;;;;;;76.38;68.05;;;19.80;99.90;;;;;;5087609;28;20053;-70
2022/08/24 00:10:53;;;;;;;84.33;72.33;;;19.80;99.90;;;;;;5105234;28;20043;-70
2022/08/24 00:13:19;;;;;;;75.97;64.50;;;19.80;99.90;;;;;;5103409;28;20188;-70
2022/08/24 00:15:46;;;;;;;84.90;71.00;;;19.80;99.90;;;;;;5106570;27;20436;-70
2022/08/24 00:18:13;;;;;;;71.70;63.72;;;19.80;99.90;;;;;;5103728;28;20062;-70
2022/08/24 00:20:39;;;;;;;87.30;68.47;;;19.80;99.90;;;;;;5105525;28;20047;-70
2022/08/24 00:23:06;;;;;;;78.45;69.85;;;19.70;99.90;;;;;;5103508;28;20113;-70
2022/08/24 00:25:33;;;;;;;79.82;64.07;;;19.70;99.90;;;;;;5086555;28;20849;-70
2022/08/24 00:28:00;;;;;;;83.13;67.78;;;19.60;99.90;;;;;;5104723;28;20040;-70
2022/08/24 00:30:26;;;;;;;80.13;68.18;;;19.60;99.90;;;;;;5103022;28;20384;-70
2022/08/24 00:32:53;;;;;;;78.20;65.25;;;19.50;99.90;;;;;;5105244;27;20051;-70
2022/08/24 00:35:19;;;;;;;79.63;67.32;;;19.50;99.90;;;;;;5087605;28;20043;-70
2022/08/24 00:37:47;;;;;;;80.63;69.00;;;19.50;99.90;;;;;;5087025;28;20534;-70
2022/08/24 00:40:22;;;;;;;79.40;65.38;;;19.40;99.90;;;;;;5103672;28;20063;-71
2022/08/24 00:42:49;;;;;;;71.70;61.90;;;19.40;99.90;;;;;;5101345;28;20051;-70
2022/08/24 00:45:16;;;;;;;80.15;66.75;;;19.40;99.90;;;;;;5103938;28;20043;-70
2022/08/24 00:47:54;;;;;;;75.38;65.30;;;19.40;99.90;;;;;;5103642;28;20043;-70
2022/08/24 00:50:41;;;;;;;73.53;63.15;;;19.50;99.90;;;;;;5086797;28;20127;-70
2022/08/24 00:53:23;;;;;;;75.97;63.00;;;19.40;99.90;;;;;;5069550;27;20046;-70
2022/08/24 00:55:53;;;;;;;73.30;62.50;;;19.40;99.90;;;;;;5102375;28;21088;-70
2022/08/24 00:58:24;;;;;;;77.38;65.35;;;19.40;99.90;;;;;;5097729;28;20183;-70
2022/08/24 01:00:58;;;;;;;74.75;61.65;;;19.40;99.90;;;;;;5099931;28;20051;-70
2022/08/24 01:03:26;;;;;;;70.65;59.72;;;19.30;99.90;;;;;;5083912;28;20085;-70
2022/08/24 01:05:52;;;;;;;;;;;19.30;99.90;;;;;;5086624;28;20572;-70
2022/08/24 01:08:20;;;;;;;71.53;60.33;;;19.30;99.90;;;;;;5081894;28;20528;-70
2022/08/24 01:10:59;;;;;;;76.97;65.35;;;19.20;99.90;;;;;;5085297;27;20084;-71
2022/08/24 01:13:28;;;;;;;73.28;61.80;;;19.20;99.90;;;;;;5103384;28;20051;-70
2022/08/24 01:15:58;;;;;;;61.88;53.47;;;19.20;99.90;;;;;;5086090;28;20047;-70
2022/08/24 01:21:36;;;;;;;74.22;60.72;;;19.20;99.90;;;;;;5080170;28;20140;-70
2022/08/24 01:24:04;;;;;;;70.03;59.22;;;19.20;99.90;;;;;;5103429;28;20051;-70
2022/08/24 01:26:38;;;;;;;62.35;55.65;;;19.20;99.90;;;;;;5104842;28;20056;-70
2022/08/24 01:29:12;;;;;;;66.13;54.38;;;19.20;99.90;;;;;;5102004;28;20148;-71
2022/08/24 01:31:38;;;;;;;63.70;55.38;;;19.10;99.90;;;;;;5103236;28;20043;-70
2022/08/24 01:34:05;;;;;;;64.03;52.17;;;19.10;99.90;;;;;;5103374;28;20460;-70
2022/08/24 01:36:44;;;;;;;64.22;55.05;;;19.10;99.90;;;;;;5105889;27;20533;-70
2022/08/24 01:39:20;;;;;;;65.80;54.35;;;19.10;99.90;;;;;;5098090;28;20089;-70
2022/08/24 01:41:46;;;;;;;65.30;54.60;;;19.10;99.90;;;;;;5101590;28;20044;-71
2022/08/24 01:44:12;;;;;;;46.88;41.88;;;19.10;99.90;;;;;;5103775;28;20062;-70
2022/08/24 01:46:46;;;;;;;58.67;50.20;;;18.90;99.90;;;;;;5101959;28;20040;-70
2022/08/24 01:49:12;;;;;;;68.05;55.13;;;18.90;99.90;;;;;;5101513;28;20051;-70
2022/08/24 01:51:37;;;;;;;66.20;55.13;;;18.90;99.90;;;;;;5101938;28;20505;-71
2022/08/24 01:54:05;;;;;;;77.55;61.50;;;18.90;99.90;;;;;;5102688;28;20038;-70
2022/08/24 01:56:31;;;;;;;55.57;49.23;;;18.80;99.90;;;;;;5103370;28;20040;-70
2022/08/24 01:58:58;;;;;;;54.13;48.10;;;18.60;99.90;;;;;;5102375;28;20543;-71
2022/08/24 02:01:25;;;;;;;58.75;52.40;;;18.70;99.90;;;;;;5102794;28;20070;-70
2022/08/24 02:03:51;;;;;;;63.60;56.35;;;18.70;99.90;;;;;;5084191;28;20040;-70
2022/08/24 02:06:18;;;;;;;71.90;56.83;;;18.60;99.90;;;;;;5104448;28;20047;-70
2022/08/24 02:08:44;;;;;;;67.07;56.78;;;18.70;99.90;;;;;;5102245;28;20058;-70
2022/08/24 02:11:10;;;;;;;67.85;55.70;;;18.70;99.90;;;;;;5100200;28;20044;-70
2022/08/24 02:13:38;;;;;;;75.53;60.13;;;18.70;99.90;;;;;;5104365;28;20035;-70
2022/08/24 02:16:05;;;;;;;82.25;63.75;;;18.60;99.90;;;;;;5108278;28;20064;-70
2022/08/24 02:18:33;;;;;;;76.03;62.63;;;18.50;99.90;;;;;;5090149;28;20411;-70
2022/08/24 02:21:00;;;;;;;82.25;65.18;;;18.50;99.90;;;;;;5106006;28;20463;-70
2022/08/24 02:23:27;;;;;;;84.15;65.13;;;18.50;99.90;;;;;;5107410;28;20039;-70
2022/08/24 02:25:53;;;;;;;79.00;66.30;;;18.50;99.90;;;;;;5107341;28;21239;-70
2022/08/24 02:28:21;;;;;;;80.50;63.75;;;18.50;99.90;;;;;;5108093;28;20043;-70
2022/08/24 02:30:47;;;;;;;;;;;18.50;99.90;;;;;;5107047;27;20044;-70
2022/08/24 02:33:13;;;;;;;80.32;63.78;;;18.40;99.90;;;;;;5105609;27;19927;-70
2022/08/24 02:35:40;;;;;;;72.68;59.45;;;18.30;99.90;;;;;;5107492;27;20043;-70
2022/08/24 02:38:07;;;;;;;64.35;57.00;;;18.30;99.90;;;;;;5103551;28;20106;-70
2022/08/24 02:40:34;;;;;;;66.45;56.13;;;18.20;99.90;;;;;;5084730;28;20092;-70
2022/08/24 02:43:00;;;;;;;72.00;59.75;;;18.20;99.90;;;;;;5087752;28;20080;-70
2022/08/24 02:45:26;;;;;;;74.80;62.72;;;18.20;99.90;;;;;;5088606;28;20086;-71
2022/08/24 02:47:52;;;;;;;67.20;58.40;;;18.20;99.90;;;;;;5106314;28;20075;-70
2022/08/24 02:50:18;;;;;;;70.60;58.03;;;18.00;99.90;;;;;;5088405;28;20044;-70
2022/08/24 02:52:44;;;;;;;65.57;54.35;;;18.00;99.90;;;;;;5105372;28;20560;-70
2022/08/24 02:55:14;;;;;;;65.93;55.50;;;18.00;99.90;;;;;;5106916;28;20135;-70
2022/08/24 02:57:40;;;;;;;66.13;55.85;;;18.00;99.90;;;;;;5105028;28;20554;-70
2022/08/24 03:00:11;;;;;;;65.88;53.95;;;18.00;99.90;;;;;;5086465;28;20055;-70
2022/08/24 03:02:38;;;;;;;61.35;50.80;;;18.00;99.90;;;;;;5086768;28;20059;-71
2022/08/24 03:05:04;;;;;;;66.78;55.63;;;18.00;99.90;;;;;;5103776;27;20051;-71
2022/08/24 03:07:29;;;;;;;60.92;50.47;;;18.00;99.90;;;;;;5110110;27;20040;-70
2022/08/24 03:09:55;;;;;;;59.70;52.08;;;18.00;99.90;;;;;;5082407;28;20044;-70
2022/08/24 03:12:21;;;;;;;64.82;54.38;;;18.00;99.90;;;;;;5102866;28;20483;-69
2022/08/24 03:14:46;;;;;;;69.05;55.10;;;18.00;99.90;;;;;;5084098;28;20048;-70
2022/08/24 03:17:12;;;;;;;63.65;54.67;;;17.90;99.90;;;;;;5106989;28;20128;-70
2022/08/24 03:19:38;;;;;;;63.13;55.22;;;17.90;99.90;;;;;;5106949;27;20044;-70
2022/08/24 03:22:04;;;;;;;71.15;56.40;;;17.90;99.90;;;;;;5105498;27;20047;-70
2022/08/24 03:24:30;;;;;;;65.78;56.05;;;17.80;99.90;;;;;;5070195;28;20047;-70
2022/08/24 03:26:56;;;;;;;66.40;56.13;;;17.80;99.90;;;;;;5105270;28;20134;-71
2022/08/24 03:29:22;;;;;;;62.38;55.58;;;17.80;99.90;;;;;;5105629;28;20046;-70
2022/08/24 03:31:48;;;;;;;66.28;56.58;;;17.80;99.90;;;;;;5103885;28;20134;-71
2022/08/24 03:34:14;;;;;;;72.72;58.85;;;17.80;99.90;;;;;;5103684;27;20052;-70
2022/08/24 03:36:45;;;;;;;69.47;57.97;;;17.80;99.90;;;;;;5105125;28;20093;-70
2022/08/24 03:39:12;;;;;;;72.32;56.80;;;17.80;99.90;;;;;;5098980;28;20080;-71
2022/08/24 03:41:37;;;;;;;65.47;55.85;;;17.80;99.90;;;;;;5082257;28;20043;-71
2022/08/24 03:44:03;;;;;;;64.28;54.25;;;17.80;99.90;;;;;;5087999;28;20065;-71
2022/08/24 03:46:35;;;;;;;66.35;56.13;;;17.80;99.90;;;;;;5090991;28;20036;-71
2022/08/24 03:49:03;;;;;;;72.45;57.78;;;17.80;99.90;;;;;;5089140;28;20086;-71
2022/08/24 03:51:29;;;;;;;69.20;58.90;;;17.70;99.90;;;;;;5100139;28;20069;-71
2022/08/24 03:53:57;;;;;;;68.00;58.00;;;17.70;99.90;;;;;;5090975;28;20051;-68
2022/08/24 03:56:23;;;;;;;;;;;17.70;99.90;;;;;;5101489;27;20039;-67
2022/08/24 03:58:49;;;;;;;65.63;55.67;;;17.70;99.90;;;;;;5106882;28;19924;-68
2022/08/24 04:01:16;;;;;;;64.70;57.13;;;17.70;99.90;;;;;;5105881;27;20075;-67
2022/08/24 04:03:43;;;;;;;73.65;58.90;;;17.70;99.90;;;;;;5100416;28;20097;-69
2022/08/24 04:06:11;;;;;;;79.43;62.95;;;17.50;99.90;;;;;;5106777;27;20071;-67
2022/08/24 04:08:37;;;;;;;72.00;59.17;;;17.50;99.90;;;;;;5102001;28;20115;-67
2022/08/24 04:11:03;;;;;;;63.97;50.67;;;17.50;99.90;;;;;;5106240;27;20154;-67
2022/08/24 04:13:32;;;;;;;53.15;47.42;;;17.40;99.90;;;;;;5105341;28;20114;-67
2022/08/24 04:16:07;;;;;;;60.45;52.17;;;17.50;99.90;;;;;;5086077;28;20713;-67
2022/08/24 04:18:34;;;;;;;60.88;52.95;;;17.50;99.90;;;;;;5085511;27;20079;-67
2022/08/24 04:20:59;;;;;;;61.13;52.13;;;17.50;99.90;;;;;;5106972;28;21133;-67
2022/08/24 04:23:27;;;;;;;45.60;40.90;;;17.40;99.90;;;;;;5104138;28;20071;-67
2022/08/24 04:25:52;;;;;;;44.47;40.05;;;17.30;99.90;;;;;;5106809;28;20127;-67
2022/08/24 04:28:19;;;;;;;52.22;42.72;;;17.20;99.90;;;;;;5108051;28;20462;-67
2022/08/24 04:30:49;;;;;;;53.28;47.78;;;17.10;99.90;;;;;;5108173;28;20629;-67
2022/08/24 04:33:16;;;;;;;68.20;51.40;;;16.90;99.90;;;;;;5105223;27;21661;-67
2022/08/24 04:35:44;;;;;;;90.60;51.35;;;16.90;99.90;;;;;;5100203;28;20039;-67
2022/08/24 04:38:13;;;;;;;61.50;49.90;;;16.70;99.90;;;;;;5106389;28;20048;-68
2022/08/24 04:40:41;;;;;;;56.58;46.53;;;16.60;99.90;;;;;;5100503;28;20036;-67
2022/08/24 04:43:07;;;;;;;54.25;44.53;;;16.50;99.90;;;;;;5105386;27;20148;-67
2022/08/24 04:45:37;;;;;;;46.05;40.53;;;16.40;99.90;;;;;;5106174;28;20540;-67
2022/08/24 04:48:02;;;;;;;46.75;41.75;;;16.50;99.90;;;;;;5082504;28;20057;-67
2022/08/24 04:50:28;;;;;;;48.20;42.38;;;16.60;99.90;;;;;;5106115;28;20050;-67
2022/08/24 04:52:54;;;;;;;49.83;42.95;;;16.70;99.90;;;;;;5106329;28;20071;-67
2022/08/24 04:55:19;;;;;;;47.25;41.70;;;16.70;99.90;;;;;;5104960;27;20476;-67
2022/08/24 04:57:45;;;;;;;47.53;37.78;;;16.60;99.90;;;;;;5104508;28;20047;-67
2022/08/24 05:00:11;;;;;;;43.13;38.55;;;16.70;99.90;;;;;;5088896;28;20052;-67
2022/08/24 05:02:38;;;;;;;43.45;39.03;;;16.80;99.90;;;;;;5087195;28;20481;-68
2022/08/24 05:05:07;;;;;;;47.33;42.20;;;16.80;99.90;;;;;;5107259;28;20463;-68
2022/08/24 05:07:32;;;;;;;51.47;44.15;;;17.00;99.90;;;;;;5104405;28;20339;-68
2022/08/24 05:09:58;;;;;;;48.63;43.33;;;17.10;99.90;;;;;;5100366;28;20075;-68
2022/08/24 05:12:23;;;;;;;54.58;45.40;;;17.20;99.90;;;;;;5082041;28;20443;-68
2022/08/24 05:14:49;;;;;;;51.45;45.85;;;17.30;99.90;;;;;;5100326;28;20057;-68
2022/08/24 05:17:15;;;;;;;53.83;46.80;;;17.40;99.90;;;;;;5063544;28;20541;-68
2022/08/24 05:19:40;;;;;;;53.90;46.38;;;17.60;99.90;;;;;;5084470;28;20048;-68
2022/08/24 05:22:06;;;;;;;67.70;51.05;;;17.70;99.90;;;;;;5103125;27;20040;-68
2022/08/24 05:24:32;;;;;;;67.55;50.78;;;17.80;99.90;;;;;;5099269;28;20088;-68
2022/08/24 05:26:59;;;;;;;62.78;50.53;;;17.90;99.90;;;;;;5097209;28;20131;-68
2022/08/24 05:29:25;;;;;;;50.00;41.92;;;18.00;99.90;;;;;;5105219;28;20047;-68
2022/08/24 05:31:52;;;;;;;43.13;36.00;;;18.00;99.90;;;;;;5102595;28;20130;-68
2022/08/24 05:34:18;;;;;;;39.28;35.03;;;18.10;99.90;;;;;;5081228;28;20349;-68
2022/08/24 05:36:44;;;;;;;45.40;40.50;;;18.10;99.90;;;;;;5095763;28;20090;-69
2022/08/24 05:39:12;;;;;;;55.33;45.72;;;18.20;99.90;;;;;;5097228;28;20462;-69
2022/08/24 05:41:40;;;;;;;54.65;45.60;;;18.20;99.90;;;;;;5099982;28;20448;-69
2022/08/24 05:44:06;;;;;;;;;;;18.30;99.90;;;;;;5083480;28;20389;-69
2022/08/24 05:46:32;;;;;;;62.40;53.88;;;18.30;99.90;;;;;;5099528;28;19929;-68
2022/08/24 05:48:58;;;;;;;62.13;51.90;;;18.30;99.90;;;;;;5105449;27;20718;-68
2022/08/24 05:51:25;;;;;;;56.65;48.10;;;18.30;99.90;;;;;;5090204;28;20130;-68
2022/08/24 05:53:50;;;;;;;67.28;51.88;;;18.40;99.90;;;;;;5103885;28;20520;-68
2022/08/24 05:56:18;;;;;;;65.13;55.45;;;18.40;99.90;;;;;;5101449;28;20062;-68
2022/08/24 05:58:44;;;;;;;67.55;56.42;;;18.40;99.90;;;;;;5105603;28;20057;-68
2022/08/24 06:01:15;;;;;;;68.30;56.53;;;18.40;99.90;;;;;;5109356;28;20086;-68
2022/08/24 06:03:42;;;;;;;71.43;58.78;;;18.40;99.90;;;;;;5110702;28;20646;-68
2022/08/24 06:06:08;;;;;;;72.05;57.55;;;18.40;99.90;;;;;;5102693;28;21887;-68
2022/08/24 06:08:38;;;;;;;76.85;62.22;;;18.50;99.90;;;;;;5101738;28;20047;-68
2022/08/24 06:11:04;;;;;;;66.68;56.92;;;18.50;99.90;;;;;;5102245;28;21613;-68
2022/08/24 06:13:31;;;;;;;67.28;56.80;;;18.60;99.90;;;;;;5108322;28;20505;-68
2022/08/24 06:16:03;;;;;;;68.32;56.05;;;18.60;99.90;;;;;;5101956;28;20031;-68
2022/08/24 06:18:29;;;;;;;64.22;54.58;;;18.70;99.90;;;;;;5104820;27;20154;-68
2022/08/24 06:20:54;;;;;;;67.50;53.92;;;18.70;99.90;;;;;;5101695;28;20573;-68
2022/08/24 06:23:20;;;;;;;68.00;57.72;;;18.70;99.90;;;;;;5103303;28;20509;-68
2022/08/24 06:28:32;;;;;;;76.75;63.85;;;18.80;99.90;;;;;;5101178;27;20147;-68
2022/08/24 06:31:06;;;;;;;91.40;73.20;;;18.90;99.90;;;;;;5110697;28;20145;-68
2022/08/24 06:33:32;;;;;;;90.50;70.35;;;19.00;99.90;;;;;;5108000;28;20100;-68
2022/08/24 06:35:57;;;;;;;97.45;74.65;;;19.10;99.90;;;;;;5101619;28;20036;-68
2022/08/24 06:38:23;;;;;;;95.55;76.95;;;19.30;99.90;;;;;;5100561;28;20112;-68
2022/08/24 06:40:49;;;;;;;86.90;71.85;;;19.50;99.90;;;;;;5099897;28;20051;-68
2022/08/24 06:43:15;;;;;;;90.32;74.13;;;19.60;99.90;;;;;;5103154;28;20048;-68
2022/08/24 06:45:41;;;;;;;95.32;78.00;;;19.70;99.90;;;;;;5108980;28;20039;-68
2022/08/24 06:48:07;;;;;;;92.32;75.40;;;19.80;99.90;;;;;;5107985;27;20046;-68
2022/08/24 06:50:33;;;;;;;117.57;82.60;;;19.90;99.90;;;;;;5109614;28;20040;-68
2022/08/24 06:53:00;;;;;;;103.00;82.07;;;20.00;99.90;;;;;;5108701;28;20039;-68
2022/08/24 06:55:26;;;;;;;116.25;89.10;;;20.20;99.90;;;;;;5097045;28;20101;-68
2022/08/24 06:57:54;;;;;;;134.32;91.78;;;20.30;99.90;;;;;;5106286;28;20062;-68
2022/08/24 07:00:21;;;;;;;107.55;88.43;;;20.60;99.90;;;;;;5109540;28;20056;-68
2022/08/24 07:02:47;;;;;;;106.75;79.80;;;20.80;99.90;;;;;;5109066;27;20545;-68
2022/08/24 07:05:12;;;;;;;100.70;79.22;;;21.10;99.90;;;;;;5108275;28;20039;-68
2022/08/24 07:07:38;;;;;;;102.38;79.45;;;21.40;99.90;;;;;;5104181;28;20047;-68
2022/08/24 07:10:07;;;;;;;97.63;77.22;;;21.70;99.90;;;;;;5090100;28;20129;-68
2022/08/24 07:12:33;;;;;;;84.07;69.07;;;22.10;99.90;;;;;;5105822;28;20158;-69
2022/08/24 07:14:59;;;;;;;89.35;68.70;;;22.40;99.90;;;;;;5109496;28;20054;-69
2022/08/24 07:17:24;;;;;;;86.30;67.72;;;22.70;99.90;;;;;;5110443;28;20043;-69
2022/08/24 07:19:50;;;;;;;78.32;63.00;;;23.00;99.90;;;;;;5105599;28;20505;-69
2022/08/24 07:22:16;;;;;;;71.72;60.22;;;23.30;99.90;;;;;;5092140;28;20065;-69
2022/08/24 07:24:41;;;;;;;74.15;64.10;;;23.60;99.90;;;;;;5109611;28;20066;-69
2022/08/24 07:27:07;;;;;;;66.13;56.38;;;23.80;99.90;;;;;;5110126;28;20401;-68
2022/08/24 07:29:33;;;;;;;65.88;55.67;;;24.10;99.90;;;;;;5108617;28;20036;-68
2022/08/24 07:31:58;;;;;;;54.88;48.67;;;24.30;99.90;;;;;;5106810;28;20112;-69
2022/08/24 07:34:24;;;;;;;57.25;45.83;;;24.50;99.90;;;;;;5108856;28;20063;-68
2022/08/24 07:36:51;;;;;;;59.17;41.58;;;24.70;99.90;;;;;;5109575;28;20047;-69
2022/08/24 07:39:17;;;;;;;47.00;39.25;;;25.00;99.90;;;;;;5105611;28;20074;-69
2022/08/24 07:41:44;;;;;;;41.63;30.67;;;25.20;99.90;;;;;;5110354;28;20039;-69
2022/08/24 07:44:11;;;;;;;39.47;28.13;;;25.40;99.90;;;;;;5090426;28;20135;-69
2022/08/24 07:46:39;;;;;;;46.05;41.13;;;25.70;99.90;;;;;;5081394;28;20154;-67
2022/08/24 07:49:06;;;;;;;;;;;25.90;99.90;;;;;;5107788;28;20067;-66
2022/08/24 07:51:32;;;;;;;31.88;26.55;;;26.00;99.90;;;;;;5109053;28;20402;-67
2022/08/24 07:54:00;;;;;;;28.17;25.58;;;26.00;99.90;;;;;;5107528;28;20122;-67
2022/08/24 07:56:27;;;;;;;32.22;29.08;;;26.40;99.90;;;;;;5110104;28;20536;-66
2022/08/24 07:58:54;;;;;;;28.40;25.42;;;26.60;99.90;;;;;;5105875;28;20142;-66
2022/08/24 08:01:21;;;;;;;34.38;26.15;;;26.70;99.90;;;;;;5100030;28;20047;-66
2022/08/24 08:03:47;;;;;;;27.02;24.27;;;26.70;99.90;;;;;;5103016;28;20052;-66
2022/08/24 08:06:13;;;;;;;20.50;18.45;;;26.90;99.90;;;;;;5104089;28;20082;-66
2022/08/24 08:08:40;;;;;;;23.70;21.38;;;27.00;99.90;;;;;;5107817;28;20071;-66
2022/08/24 08:11:06;;;;;;;;;;;27.10;99.90;;;;;;5085072;28;20043;-66
2022/08/24 08:13:34;;;;;;;27.90;22.58;;;27.20;99.90;;;;;;5103951;28;20449;-66
2022/08/24 08:16:00;;;;;;;29.30;22.60;;;27.30;99.90;;;;;;5106621;28;20527;-66
2022/08/24 08:18:27;;;;;;;24.50;22.05;;;27.50;99.90;;;;;;5106425;28;20035;-66
2022/08/24 08:20:53;;;;;;;22.98;20.67;;;27.60;99.90;;;;;;5104456;28;20039;-65
2022/08/24 08:26:05;;;;;;;23.17;20.80;;;27.80;99.90;;;;;;5106352;28;20040;-65
2022/08/24 08:28:32;;;;;;;;;;;27.70;99.90;;;;;;5106781;28;20065;-66
2022/08/24 08:31:02;;;;;;;25.55;21.98;;;27.80;99.90;;;;;;5103292;28;19920;-65
2022/08/24 08:33:29;;;;;;;27.95;21.30;;;27.80;99.90;;;;;;5102988;28;20089;-65
2022/08/24 08:36:06;;;;;;;31.02;27.33;;;28.10;99.90;;;;;;5089650;28;20177;-66
2022/08/24 08:38:33;;;;;;;25.52;22.52;;;28.10;99.90;;;;;;5112755;27;20048;-65
2022/08/24 08:41:18;;;;;;;26.83;24.00;;;28.30;99.90;;;;;;5106005;27;20040;-67
2022/08/24 08:44:00;;;;;;;26.67;23.98;;;28.50;99.90;;;;;;5103501;28;20077;-67
2022/08/24 08:46:38;;;;;;;22.35;20.25;;;28.50;99.90;;;;;;5101179;28;20047;-67
2022/08/24 08:49:13;;;;;;;27.27;24.55;;;28.70;99.90;;;;;;5086201;28;20031;-67
2022/08/24 08:52:23;;;;;;;25.55;22.75;;;28.80;99.90;;;;;;5066743;28;20058;-67
2022/08/24 08:55:14;;;;;;;30.95;25.42;;;28.60;96.80;;;;;;5083703;28;20039;-67
2022/08/24 08:57:59;;;;;;;26.80;23.55;;;28.80;99.90;;;;;;5104725;28;20051;-67
2022/08/24 09:00:40;;;;;;;24.00;17.63;;;28.90;99.90;;;;;;5104568;28;20250;-68
2022/08/24 09:03:20;;;;;;;18.67;16.88;;;29.00;99.90;;;;;;5105318;28;20704;-67
2022/08/24 09:05:53;;;;;;;18.63;16.63;;;29.20;92.40;;;;;;5100745;27;20048;-67
2022/08/24 09:08:40;;;;;;;27.20;24.25;;;29.30;98.00;;;;;;5102777;28;20067;-68
2022/08/24 09:11:31;;;;;;;29.92;22.70;;;29.40;92.60;;;;;;5103202;28;20880;-67
2022/08/24 09:14:03;;;;;;;24.83;22.60;;;29.40;92.30;;;;;;5100908;28;20116;-67
2022/08/24 09:16:39;;;;;;;22.73;20.40;;;29.10;94.70;;;;;;5104213;27;20564;-68
2022/08/24 09:19:20;;;;;;;25.58;22.77;;;29.00;92.50;;;;;;5097522;28;20108;-67
2022/08/24 09:22:10;;;;;;;25.75;23.02;;;29.00;94.50;;;;;;5100542;28;20804;-67
2022/08/24 09:24:47;;;;;;;34.22;22.05;;;28.90;94.00;;;;;;5098107;28;20100;-67
2022/08/24 09:27:22;;;;;;;19.30;17.25;;;29.00;92.70;;;;;;5103980;28;20069;-68
2022/08/24 09:30:11;;;;;;;30.33;16.90;;;29.00;96.40;;;;;;5104718;28;20052;-68
2022/08/24 09:33:07;;;;;;;31.70;18.35;;;29.20;93.00;;;;;;5078372;28;20044;-67
2022/08/24 09:35:57;;;;;;;20.73;18.50;;;29.50;92.90;;;;;;5106226;28;20063;-67
2022/08/24 09:38:49;;;;;;;22.63;20.27;;;29.70;91.90;;;;;;5107799;28;20051;-67
2022/08/24 09:41:17;;;;;;;25.45;20.92;;;29.80;84.30;;;;;;5105967;28;20039;-68
2022/08/24 09:44:20;;;;;;;24.30;16.10;;;29.70;86.90;;;;;;5105801;28;20044;-67
2022/08/24 09:46:58;;;;;;;22.13;17.08;;;29.90;89.10;;;;;;5101308;28;20051;-68
2022/08/24 09:49:29;;;;;;;23.95;17.85;;;30.00;83.90;;;;;;5097730;28;20500;-67
2022/08/24 09:51:58;;;;;;;20.15;18.20;;;30.10;79.90;;;;;;5088113;28;20044;-68
2022/08/24 09:55:04;;;;;;;18.55;16.38;;;30.10;82.10;;;;;;5102539;28;20389;-68
2022/08/24 09:57:58;;;;;;;24.83;16.00;;;30.20;78.60;;;;;;5106081;28;20075;-68
2022/08/24 10:00:36;;;;;;;20.85;18.75;;;30.10;80.30;;;;;;5101196;28;20109;-67
2022/08/24 10:03:14;;;;;;;17.48;15.55;;;30.00;81.20;;;;;;5095668;28;20464;-67
2022/08/24 10:05:53;;;;;;;18.98;17.02;;;30.10;80.80;;;;;;5103772;28;20051;-67
2022/08/24 10:08:33;;;;;;;26.23;18.45;;;30.30;79.30;;;;;;5106674;28;20401;-67
2022/08/24 10:11:22;;;;;;;15.40;13.30;;;30.40;80.10;;;;;;5106791;28;20040;-68
2022/08/24 10:14:26;;;;;;;20.10;16.80;;;30.50;79.80;;;;;;5100916;28;20127;-68
2022/08/24 10:16:58;;;;;;;16.23;14.63;;;30.60;77.70;;;;;;5063206;28;20058;-67
2022/08/24 10:19:46;;;;;;;25.70;14.27;;;30.60;77.60;;;;;;5100696;28;20131;-67
2022/08/24 10:22:41;;;;;;;21.05;17.25;;;30.80;75.50;;;;;;5106394;28;20054;-67
2022/08/24 10:25:35;;;;;;;19.00;16.90;;;30.60;73.20;;;;;;5108739;28;20047;-67
2022/08/24 10:28:25;;;;;;;16.10;14.63;;;30.60;74.50;;;;;;5113841;28;20267;-67
2022/08/24 10:30:57;;;;;;;20.23;18.15;;;30.50;75.10;;;;;;5110782;28;20112;-67
2022/08/24 10:33:30;;;;;;;24.23;17.42;;;30.60;75.50;;;;;;5103344;28;20043;-68
2022/08/24 10:36:25;;;;;;;18.02;16.15;;;30.40;75.10;;;;;;5109320;27;20036;-67
2022/08/24 10:45:34;;;;;;;16.17;13.65;;;30.40;76.40;;;;;;5086034;28;20052;-67
2022/08/24 10:48:17;;;;;;;18.33;15.65;;;30.70;77.40;;;;;;5082379;28;20051;-67
2022/08/24 10:51:04;;;;;;;16.27;14.45;;;30.70;74.80;;;;;;5103581;28;20075;-66
2022/08/24 10:53:32;;;;;;;16.60;15.10;;;30.70;74.50;;;;;;5103292;28;20054;-67
2022/08/24 10:56:04;;;;;;;17.17;14.68;;;30.80;73.90;;;;;;5108479;27;20130;-66
2022/08/24 10:58:48;;;;;;;15.07;13.73;;;30.70;73.40;;;;;;5105793;27;20186;-67
2022/08/24 11:01:36;;;;;;;14.40;13.10;;;30.90;73.80;;;;;;5096592;28;20572;-67
2022/08/24 11:04:11;;;;;;;17.95;14.73;;;30.80;70.00;;;;;;5103635;28;20032;-66
2022/08/24 11:06:50;;;;;;;14.13;12.63;;;30.80;70.10;;;;;;5107100;28;20776;-67
2022/08/24 11:09:16;;;;;;;22.65;11.90;;;30.90;70.40;;;;;;5096166;28;20400;-66
2022/08/24 11:11:45;;;;;;;18.00;14.20;;;30.70;70.30;;;;;;5109918;28;20853;-67
2022/08/24 11:14:14;;;;;;;18.15;11.82;;;30.90;71.00;;;;;;5110124;27;20039;-67
2022/08/24 11:16:43;;;;;;;13.45;11.55;;;30.90;70.60;;;;;;5107351;27;20040;-67
2022/08/24 11:19:28;;;;;;;13.85;12.43;;;31.00;70.60;;;;;;5107119;28;20127;-67
2022/08/24 11:21:57;;;;;;;16.25;11.70;;;31.10;69.10;;;;;;5104923;28;20487;-67
2022/08/24 11:24:25;;;;;;;26.80;14.43;;;31.30;71.00;;;;;;5109419;27;20139;-67
2022/08/24 11:27:00;;;;;;;13.25;11.95;;;31.40;68.20;;;;;;5104805;27;20128;-67
2022/08/24 11:29:48;;;;;;;13.02;11.80;;;31.50;67.70;;;;;;5107543;28;20123;-67
2022/08/24 11:32:26;;;;;;;12.63;11.48;;;31.70;67.90;;;;;;5101987;27;20044;-67
2022/08/24 11:34:52;;;;;;;11.70;10.60;;;31.60;66.10;;;;;;5090003;28;20564;-67
2022/08/24 11:37:22;;;;;;;15.70;10.80;;;31.80;65.90;;;;;;5105735;27;20035;-68
2022/08/24 11:39:48;;;;;;;11.57;9.75;;;31.80;65.40;;;;;;5101923;28;20113;-67
2022/08/24 11:42:52;;;;;;;12.15;10.60;;;31.60;64.80;;;;;;5105608;27;20654;-68
2022/08/24 11:45:23;;;;;;;13.27;10.73;;;31.60;64.50;;;;;;5106023;28;20052;-67
2022/08/24 11:48:16;;;;;;;12.43;10.68;;;31.50;64.90;;;;;;5082468;28;20126;-67
2022/08/24 11:51:13;;;;;;;12.90;11.70;;;31.70;64.00;;;;;;5087657;28;20052;-67
2022/08/24 11:53:54;;;;;;;10.18;8.75;;;31.60;64.30;;;;;;5102905;27;20047;-68
2022/08/24 11:56:44;;;;;;;10.02;8.88;;;31.60;63.00;;;;;;5104079;27;20046;-66
2022/08/24 11:59:38;;;;;;;9.65;8.75;;;31.70;61.60;;;;;;5102226;28;20051;-66
2022/08/24 12:02:09;;;;;;;13.10;8.55;;;31.70;61.00;;;;;;5101832;27;20144;-67
2022/08/24 12:04:41;;;;;;;9.60;8.80;;;31.80;62.30;;;;;;5104359;27;20480;-66
2022/08/24 12:07:15;;;;;;;10.35;9.02;;;32.00;61.60;;;;;;5100791;27;20039;-67
2022/08/24 12:10:00;;;;;;;10.63;8.63;;;32.10;61.10;;;;;;5082302;28;20036;-67
2022/08/24 12:12:30;;;;;;;13.88;10.27;;;31.80;60.10;;;;;;5103453;28;20047;-66
2022/08/24 12:15:03;;;;;;;8.90;8.00;;;31.60;61.40;;;;;;5105894;28;20146;-66
2022/08/24 12:17:48;;;;;;;10.15;8.48;;;31.60;61.30;;;;;;5108588;28;20118;-66
2022/08/24 12:20:37;;;;;;;7.65;6.70;;;31.70;61.70;;;;;;5097845;28;20044;-67
2022/08/24 12:23:10;;;;;;;8.40;7.55;;;31.70;60.10;;;;;;5102618;28;20547;-67
2022/08/24 12:28:26;;;;;;;9.65;8.25;;;31.90;60.10;;;;;;5108456;28;20079;-67
2022/08/24 12:30:56;;;;;;;7.75;7.22;;;31.80;60.10;;;;;;5107658;28;20097;-66
2022/08/24 12:33:29;;;;;;;10.32;8.55;;;31.70;60.00;;;;;;5105519;28;20155;-66
2022/08/24 12:36:01;;;;;;;13.77;8.90;;;31.70;60.10;;;;;;5098473;28;20044;-66
2022/08/24 12:38:38;;;;;;;16.02;8.40;;;31.80;60.40;;;;;;5101538;28;20050;-66
2022/08/24 12:41:17;;;;;;;12.57;7.80;;;31.70;59.40;;;;;;5101866;28;20036;-66
2022/08/24 12:44:10;;;;;;;9.02;7.82;;;31.80;59.00;;;;;;5104895;27;20040;-67
2022/08/24 12:46:37;;;;;;;8.05;7.35;;;31.80;58.20;;;;;;5106014;28;20048;-67
2022/08/24 12:49:21;;;;;;;8.85;7.38;;;31.80;58.80;;;;;;5094110;28;20039;-67
2022/08/24 12:51:59;;;;;;;8.88;8.05;;;31.80;58.40;;;;;;5101148;28;20377;-67
2022/08/24 12:55:10;;;;;;;7.78;7.00;;;31.70;58.20;;;;;;5107639;28;20519;-66
2022/08/24 12:58:06;;;;;;;11.45;6.90;;;31.70;58.20;;;;;;5093861;28;20108;-66
2022/08/24 13:00:43;;;;;;;6.85;6.32;;;31.50;58.60;;;;;;5105455;28;20098;-66
2022/08/24 13:03:33;;;;;;;8.60;6.50;;;31.40;58.60;;;;;;5092142;28;20083;-66
2022/08/24 13:06:03;;;;;;;7.50;6.90;;;31.40;58.60;;;;;;5104530;28;20070;-66
2022/08/24 13:08:42;;;;;;;10.30;6.97;;;31.30;59.20;;;;;;5104208;28;20216;-66
2022/08/24 13:11:12;;;;;;;7.15;6.65;;;31.30;60.00;;;;;;5105697;28;20055;-66